Assist Alamitos — WDH6800 — position and weather

sailwx.info

Track history (hours):
 
Tides and Currents Weather Stations Pressure Air Temp Water Temp Dewpoint Dewpoint Depression Visibility Wind Speed Wind Dir Waves Ship Positions

Assist Alamitos

Owner: Alamitos Bay Marine, Long Beach, CA. More information available from US FCC via Universal Licensing System and Coast Guard Vessel Documentation Center.

Last reported at 2017-Oct-16 00:10 UTC. Time now 2017-Oct-18 18:32 UTC.
Position N 33°45' W 118°07'.

Length 9 m.

MMSI: 367641740.

Date/timePositionNaut miles runAvg speedWind from/ knotsBaromVisibWave heightAir tempDewpointWater temp
2017-Oct-16 00:10N 33°45' W 118°07'0 0.2
2017-Oct-16 00:00N 33°45' W 118°07'0 0.1
2017-Oct-15 23:30N 33°45' W 118°07'0 0.0
2017-Oct-15 22:47N 33°45' W 118°07'0 0.1
2017-Oct-15 22:30N 33°45' W 118°07'0 0.1
2017-Oct-15 22:00N 33°45' W 118°07'  
2017-Oct-09 01:25N 33°45' W 118°07'4 6.2
2017-Oct-09 00:47N 33°46' W 118°11'2 3.8
2017-Oct-09 00:23N 33°44' W 118°11'3 6.9
2017-Oct-08 23:58N 33°41' W 118°12'3 6.9
2017-Oct-08 23:30N 33°39' W 118°15'3 6.5
2017-Oct-08 22:58N 33°36' W 118°18'3 6.7
2017-Oct-08 22:30N 33°34' W 118°20'4 6.7
2017-Oct-08 21:52N 33°31' W 118°24'2 6.5
2017-Oct-08 21:30N 33°30' W 118°26'4 6.3
2017-Oct-08 20:56N 33°27' W 118°29'1 2.3
2017-Oct-08 20:30N 33°28' W 118°29'1019.3
2017-Oct-08 20:00N 33°35' W 118°21'1018.5
2017-Oct-08 19:27N 33°42' W 118°12'511.4
2017-Oct-08 19:00N 33°45' W 118°07'  
Track history (hours):
 
Tides and Currents Weather Stations Pressure Air Temp Water Temp Dewpoint Dewpoint Depression Visibility Wind Speed Wind Dir Waves Ship Positions

Assist Alamitos

Owner: Alamitos Bay Marine, Long Beach, CA. More information available from US FCC via Universal Licensing System and Coast Guard Vessel Documentation Center.

Last reported at 2017-Oct-16 00:10 UTC. Time now 2017-Oct-18 18:32 UTC.
Position N 33°45' W 118°07'.

Length 9 m.

MMSI: 367641740.

Date/timePositionNaut miles runAvg speedWind from/ knotsBaromVisibWave heightAir tempDewpointWater temp
2017-Oct-16 00:10N 33°45' W 118°07'0 0.2
2017-Oct-16 00:00N 33°45' W 118°07'0 0.1
2017-Oct-15 23:30N 33°45' W 118°07'0 0.0
2017-Oct-15 22:47N 33°45' W 118°07'0 0.1
2017-Oct-15 22:30N 33°45' W 118°07'0 0.1
2017-Oct-15 22:00N 33°45' W 118°07'  
2017-Oct-09 01:25N 33°45' W 118°07'4 6.2
2017-Oct-09 00:47N 33°46' W 118°11'2 3.8
2017-Oct-09 00:23N 33°44' W 118°11'3 6.9
2017-Oct-08 23:58N 33°41' W 118°12'3 6.9
2017-Oct-08 23:30N 33°39' W 118°15'3 6.5
2017-Oct-08 22:58N 33°36' W 118°18'3 6.7
2017-Oct-08 22:30N 33°34' W 118°20'4 6.7
2017-Oct-08 21:52N 33°31' W 118°24'2 6.5
2017-Oct-08 21:30N 33°30' W 118°26'4 6.3
2017-Oct-08 20:56N 33°27' W 118°29'1 2.3
2017-Oct-08 20:30N 33°28' W 118°29'1019.3
2017-Oct-08 20:00N 33°35' W 118°21'1018.5
2017-Oct-08 19:27N 33°42' W 118°12'511.4
2017-Oct-08 19:00N 33°45' W 118°07'  

Dump ship's entire track history